sensor_id;sensor_type;location;lat;lon;timestamp;P1;durP1;ratioP1;P2;durP2;ratioP2
10473;SDS011;5284;50.446;7.904;2024-01-30T00:01:12;40.47;;;16.50;;
10473;SDS011;5284;50.446;7.904;2024-01-30T00:06:18;35.80;;;15.77;;
10473;SDS011;5284;50.446;7.904;2024-01-30T00:11:22;29.83;;;15.43;;
10473;SDS011;5284;50.446;7.904;2024-01-30T00:16:28;34.05;;;15.48;;
10473;SDS011;5284;50.446;7.904;2024-01-30T00:21:31;42.78;;;16.33;;
10473;SDS011;5284;50.446;7.904;2024-01-30T00:26:34;36.63;;;17.05;;
10473;SDS011;5284;50.446;7.904;2024-01-30T00:31:39;38.00;;;15.32;;
10473;SDS011;5284;50.446;7.904;2024-01-30T00:36:43;35.40;;;15.85;;
10473;SDS011;5284;50.446;7.904;2024-01-30T00:41:46;48.90;;;16.52;;
10473;SDS011;5284;50.446;7.904;2024-01-30T00:46:50;47.15;;;15.65;;
10473;SDS011;5284;50.446;7.904;2024-01-30T00:51:53;34.17;;;16.23;;
10473;SDS011;5284;50.446;7.904;2024-01-30T00:56:57;38.38;;;15.82;;
10473;SDS011;5284;50.446;7.904;2024-01-30T01:02:01;33.35;;;15.38;;
10473;SDS011;5284;50.446;7.904;2024-01-30T01:07:04;33.40;;;15.27;;
10473;SDS011;5284;50.446;7.904;2024-01-30T01:12:07;32.55;;;15.43;;
10473;SDS011;5284;50.446;7.904;2024-01-30T01:17:11;26.70;;;14.43;;
10473;SDS011;5284;50.446;7.904;2024-01-30T01:22:15;37.10;;;14.40;;
10473;SDS011;5284;50.446;7.904;2024-01-30T01:27:19;35.05;;;14.57;;
10473;SDS011;5284;50.446;7.904;2024-01-30T01:32:23;38.70;;;16.42;;
10473;SDS011;5284;50.446;7.904;2024-01-30T01:37:27;35.58;;;15.23;;
10473;SDS011;5284;50.446;7.904;2024-01-30T01:42:30;40.75;;;15.75;;
10473;SDS011;5284;50.446;7.904;2024-01-30T01:47:35;38.95;;;15.38;;
10473;SDS011;5284;50.446;7.904;2024-01-30T01:52:38;34.47;;;14.85;;
10473;SDS011;5284;50.446;7.904;2024-01-30T01:57:43;37.78;;;16.95;;
10473;SDS011;5284;50.446;7.904;2024-01-30T02:02:47;35.53;;;15.75;;
10473;SDS011;5284;50.446;7.904;2024-01-30T02:07:51;37.38;;;13.93;;
10473;SDS011;5284;50.446;7.904;2024-01-30T02:12:55;39.50;;;17.35;;
10473;SDS011;5284;50.446;7.904;2024-01-30T02:17:59;37.10;;;15.07;;
10473;SDS011;5284;50.446;7.904;2024-01-30T02:23:03;44.10;;;16.10;;
10473;SDS011;5284;50.446;7.904;2024-01-30T02:28:07;38.47;;;15.35;;
10473;SDS011;5284;50.446;7.904;2024-01-30T02:33:10;36.72;;;13.98;;
10473;SDS011;5284;50.446;7.904;2024-01-30T02:38:16;34.83;;;15.32;;
10473;SDS011;5284;50.446;7.904;2024-01-30T02:43:19;41.03;;;14.98;;
10473;SDS011;5284;50.446;7.904;2024-01-30T02:48:24;49.13;;;15.25;;
10473;SDS011;5284;50.446;7.904;2024-01-30T02:53:32;39.73;;;14.70;;
10473;SDS011;5284;50.446;7.904;2024-01-30T02:58:35;33.92;;;15.15;;
10473;SDS011;5284;50.446;7.904;2024-01-30T03:03:38;30.25;;;13.80;;
10473;SDS011;5284;50.446;7.904;2024-01-30T03:08:44;31.38;;;14.10;;
10473;SDS011;5284;50.446;7.904;2024-01-30T03:13:46;38.40;;;14.93;;
10473;SDS011;5284;50.446;7.904;2024-01-30T03:18:49;29.90;;;14.43;;
10473;SDS011;5284;50.446;7.904;2024-01-30T03:23:54;31.55;;;15.18;;
10473;SDS011;5284;50.446;7.904;2024-01-30T03:28:56;28.67;;;14.98;;
10473;SDS011;5284;50.446;7.904;2024-01-30T03:34:00;37.20;;;13.48;;
10473;SDS011;5284;50.446;7.904;2024-01-30T03:39:04;42.13;;;15.77;;
10473;SDS011;5284;50.446;7.904;2024-01-30T03:44:09;38.53;;;15.27;;
10473;SDS011;5284;50.446;7.904;2024-01-30T03:49:12;33.25;;;15.93;;
10473;SDS011;5284;50.446;7.904;2024-01-30T03:54:16;36.55;;;15.07;;
10473;SDS011;5284;50.446;7.904;2024-01-30T03:59:19;30.35;;;15.38;;
10473;SDS011;5284;50.446;7.904;2024-01-30T04:04:27;34.45;;;16.05;;
10473;SDS011;5284;50.446;7.904;2024-01-30T04:15:00;36.63;;;15.82;;
10473;SDS011;5284;50.446;7.904;2024-01-30T04:20:05;39.83;;;14.20;;
10473;SDS011;5284;50.446;7.904;2024-01-30T04:25:10;29.33;;;14.75;;
10473;SDS011;5284;50.446;7.904;2024-01-30T04:30:14;35.03;;;14.38;;
10473;SDS011;5284;50.446;7.904;2024-01-30T04:35:17;34.65;;;14.85;;
10473;SDS011;5284;50.446;7.904;2024-01-30T04:40:25;28.95;;;13.90;;
10473;SDS011;5284;50.446;7.904;2024-01-30T04:45:28;35.13;;;16.10;;
10473;SDS011;5284;50.446;7.904;2024-01-30T04:50:32;32.88;;;15.75;;
10473;SDS011;5284;50.446;7.904;2024-01-30T04:55:36;48.85;;;16.52;;
10473;SDS011;5284;50.446;7.904;2024-01-30T05:00:40;37.38;;;16.17;;
10473;SDS011;5284;50.446;7.904;2024-01-30T05:05:43;40.10;;;15.13;;
10473;SDS011;5284;50.446;7.904;2024-01-30T05:10:47;34.75;;;14.73;;
10473;SDS011;5284;50.446;7.904;2024-01-30T05:15:50;36.25;;;15.23;;
10473;SDS011;5284;50.446;7.904;2024-01-30T05:20:54;39.95;;;15.15;;
10473;SDS011;5284;50.446;7.904;2024-01-30T05:25:59;34.78;;;15.45;;
10473;SDS011;5284;50.446;7.904;2024-01-30T05:31:03;39.67;;;15.90;;
10473;SDS011;5284;50.446;7.904;2024-01-30T05:36:06;37.35;;;14.65;;
10473;SDS011;5284;50.446;7.904;2024-01-30T05:41:11;37.30;;;17.63;;
10473;SDS011;5284;50.446;7.904;2024-01-30T05:46:14;42.28;;;16.40;;
10473;SDS011;5284;50.446;7.904;2024-01-30T05:51:17;35.08;;;15.48;;
10473;SDS011;5284;50.446;7.904;2024-01-30T05:56:21;34.13;;;15.88;;
10473;SDS011;5284;50.446;7.904;2024-01-30T06:01:24;43.72;;;18.38;;
10473;SDS011;5284;50.446;7.904;2024-01-30T06:06:28;38.08;;;16.27;;
10473;SDS011;5284;50.446;7.904;2024-01-30T06:11:32;41.38;;;16.63;;
10473;SDS011;5284;50.446;7.904;2024-01-30T06:16:35;44.10;;;14.57;;
10473;SDS011;5284;50.446;7.904;2024-01-30T06:21:38;33.35;;;14.63;;
10473;SDS011;5284;50.446;7.904;2024-01-30T06:26:43;41.85;;;17.05;;
10473;SDS011;5284;50.446;7.904;2024-01-30T06:31:46;42.03;;;17.70;;
10473;SDS011;5284;50.446;7.904;2024-01-30T06:36:49;39.65;;;17.05;;
10473;SDS011;5284;50.446;7.904;2024-01-30T06:41:54;34.67;;;16.63;;
10473;SDS011;5284;50.446;7.904;2024-01-30T06:46:58;40.78;;;17.50;;
10473;SDS011;5284;50.446;7.904;2024-01-30T06:52:00;43.25;;;18.38;;
10473;SDS011;5284;50.446;7.904;2024-01-30T06:57:05;41.60;;;18.35;;
10473;SDS011;5284;50.446;7.904;2024-01-30T07:02:10;38.13;;;17.20;;
10473;SDS011;5284;50.446;7.904;2024-01-30T07:07:14;43.72;;;17.27;;
10473;SDS011;5284;50.446;7.904;2024-01-30T07:12:18;35.28;;;17.15;;
10473;SDS011;5284;50.446;7.904;2024-01-30T07:17:21;38.08;;;16.50;;
10473;SDS011;5284;50.446;7.904;2024-01-30T07:22:25;38.55;;;16.92;;
10473;SDS011;5284;50.446;7.904;2024-01-30T07:27:30;37.90;;;17.05;;
10473;SDS011;5284;50.446;7.904;2024-01-30T07:32:33;37.25;;;17.73;;
10473;SDS011;5284;50.446;7.904;2024-01-30T07:37:37;37.20;;;16.23;;
10473;SDS011;5284;50.446;7.904;2024-01-30T07:42:43;43.60;;;17.77;;
10473;SDS011;5284;50.446;7.904;2024-01-30T07:47:47;39.40;;;18.10;;
10473;SDS011;5284;50.446;7.904;2024-01-30T07:52:50;44.10;;;18.38;;
10473;SDS011;5284;50.446;7.904;2024-01-30T07:57:58;39.25;;;17.35;;
10473;SDS011;5284;50.446;7.904;2024-01-30T08:03:01;48.33;;;18.98;;
10473;SDS011;5284;50.446;7.904;2024-01-30T08:08:05;39.33;;;17.35;;
10473;SDS011;5284;50.446;7.904;2024-01-30T08:13:09;41.08;;;18.83;;
10473;SDS011;5284;50.446;7.904;2024-01-30T08:18:13;46.15;;;23.13;;
10473;SDS011;5284;50.446;7.904;2024-01-30T08:23:16;47.70;;;21.17;;
10473;SDS011;5284;50.446;7.904;2024-01-30T08:28:20;41.97;;;18.20;;
10473;SDS011;5284;50.446;7.904;2024-01-30T08:33:23;50.20;;;23.50;;
10473;SDS011;5284;50.446;7.904;2024-01-30T08:38:27;44.47;;;18.58;;
10473;SDS011;5284;50.446;7.904;2024-01-30T08:43:31;43.45;;;19.00;;
10473;SDS011;5284;50.446;7.904;2024-01-30T08:48:35;38.08;;;16.90;;
10473;SDS011;5284;50.446;7.904;2024-01-30T08:53:39;54.17;;;19.35;;
10473;SDS011;5284;50.446;7.904;2024-01-30T08:58:45;48.95;;;19.23;;
10473;SDS011;5284;50.446;7.904;2024-01-30T09:03:48;43.30;;;17.48;;
10473;SDS011;5284;50.446;7.904;2024-01-30T09:08:52;40.13;;;18.00;;
10473;SDS011;5284;50.446;7.904;2024-01-30T09:13:56;57.55;;;23.73;;
10473;SDS011;5284;50.446;7.904;2024-01-30T09:18:59;108.15;;;32.22;;
10473;SDS011;5284;50.446;7.904;2024-01-30T09:24:02;76.10;;;29.60;;
10473;SDS011;5284;50.446;7.904;2024-01-30T09:29:07;39.13;;;18.83;;
10473;SDS011;5284;50.446;7.904;2024-01-30T09:34:10;42.53;;;17.40;;
10473;SDS011;5284;50.446;7.904;2024-01-30T09:39:13;49.70;;;17.65;;
10473;SDS011;5284;50.446;7.904;2024-01-30T09:44:18;49.05;;;17.05;;
10473;SDS011;5284;50.446;7.904;2024-01-30T09:49:22;38.72;;;17.88;;
10473;SDS011;5284;50.446;7.904;2024-01-30T09:54:27;62.55;;;25.85;;
10473;SDS011;5284;50.446;7.904;2024-01-30T09:59:41;68.78;;;25.20;;
10473;SDS011;5284;50.446;7.904;2024-01-30T10:04:44;41.72;;;20.75;;
10473;SDS011;5284;50.446;7.904;2024-01-30T10:09:47;46.20;;;20.23;;
10473;SDS011;5284;50.446;7.904;2024-01-30T10:14:52;43.20;;;18.58;;
10473;SDS011;5284;50.446;7.904;2024-01-30T10:19:55;66.88;;;26.10;;
10473;SDS011;5284;50.446;7.904;2024-01-30T10:24:58;59.03;;;23.98;;
10473;SDS011;5284;50.446;7.904;2024-01-30T10:30:08;40.58;;;18.85;;
10473;SDS011;5284;50.446;7.904;2024-01-30T10:35:12;35.30;;;17.60;;
10473;SDS011;5284;50.446;7.904;2024-01-30T10:40:17;37.90;;;15.73;;
10473;SDS011;5284;50.446;7.904;2024-01-30T10:45:26;36.72;;;16.33;;
10473;SDS011;5284;50.446;7.904;2024-01-30T10:50:30;33.78;;;16.45;;
10473;SDS011;5284;50.446;7.904;2024-01-30T10:55:38;31.17;;;15.23;;
10473;SDS011;5284;50.446;7.904;2024-01-30T11:00:43;33.50;;;16.85;;
10473;SDS011;5284;50.446;7.904;2024-01-30T11:05:48;36.33;;;16.85;;
10473;SDS011;5284;50.446;7.904;2024-01-30T11:10:55;36.35;;;15.48;;
10473;SDS011;5284;50.446;7.904;2024-01-30T11:16:01;29.02;;;12.95;;
10473;SDS011;5284;50.446;7.904;2024-01-30T11:21:06;26.00;;;13.02;;
10473;SDS011;5284;50.446;7.904;2024-01-30T11:26:10;20.88;;;10.82;;
10473;SDS011;5284;50.446;7.904;2024-01-30T11:31:14;23.40;;;12.55;;
10473;SDS011;5284;50.446;7.904;2024-01-30T11:36:21;21.20;;;11.52;;
10473;SDS011;5284;50.446;7.904;2024-01-30T11:41:28;21.00;;;11.60;;
10473;SDS011;5284;50.446;7.904;2024-01-30T11:46:33;28.85;;;12.18;;
10473;SDS011;5284;50.446;7.904;2024-01-30T11:51:38;23.25;;;11.80;;
10473;SDS011;5284;50.446;7.904;2024-01-30T11:56:41;20.75;;;10.57;;
10473;SDS011;5284;50.446;7.904;2024-01-30T12:01:46;22.55;;;10.35;;
10473;SDS011;5284;50.446;7.904;2024-01-30T12:06:50;28.45;;;11.10;;
10473;SDS011;5284;50.446;7.904;2024-01-30T12:11:54;20.67;;;11.10;;
10473;SDS011;5284;50.446;7.904;2024-01-30T12:16:59;24.17;;;12.55;;
10473;SDS011;5284;50.446;7.904;2024-01-30T12:22:04;26.80;;;13.77;;
10473;SDS011;5284;50.446;7.904;2024-01-30T12:27:07;20.55;;;10.15;;
10473;SDS011;5284;50.446;7.904;2024-01-30T12:32:15;26.35;;;10.05;;
10473;SDS011;5284;50.446;7.904;2024-01-30T12:37:18;28.98;;;12.15;;
10473;SDS011;5284;50.446;7.904;2024-01-30T12:47:30;34.40;;;13.75;;
10473;SDS011;5284;50.446;7.904;2024-01-30T12:52:34;18.80;;;9.27;;
10473;SDS011;5284;50.446;7.904;2024-01-30T12:57:38;15.98;;;7.25;;
10473;SDS011;5284;50.446;7.904;2024-01-30T13:02:42;14.63;;;4.95;;
10473;SDS011;5284;50.446;7.904;2024-01-30T13:07:46;11.25;;;4.97;;
10473;SDS011;5284;50.446;7.904;2024-01-30T13:12:51;13.10;;;5.30;;
10473;SDS011;5284;50.446;7.904;2024-01-30T13:17:55;13.88;;;4.50;;
10473;SDS011;5284;50.446;7.904;2024-01-30T13:22:58;14.07;;;5.72;;
10473;SDS011;5284;50.446;7.904;2024-01-30T13:28:01;9.30;;;4.50;;
10473;SDS011;5284;50.446;7.904;2024-01-30T13:33:06;11.65;;;4.75;;
10473;SDS011;5284;50.446;7.904;2024-01-30T13:38:09;16.42;;;5.18;;
10473;SDS011;5284;50.446;7.904;2024-01-30T13:43:13;11.82;;;4.38;;
10473;SDS011;5284;50.446;7.904;2024-01-30T13:48:17;21.15;;;5.15;;
10473;SDS011;5284;50.446;7.904;2024-01-30T13:53:21;11.60;;;4.50;;
10473;SDS011;5284;50.446;7.904;2024-01-30T13:58:24;11.02;;;4.80;;
10473;SDS011;5284;50.446;7.904;2024-01-30T14:03:29;17.80;;;6.07;;
10473;SDS011;5284;50.446;7.904;2024-01-30T14:08:32;16.05;;;5.63;;
10473;SDS011;5284;50.446;7.904;2024-01-30T14:13:35;15.73;;;5.13;;
10473;SDS011;5284;50.446;7.904;2024-01-30T14:18:39;19.23;;;8.40;;
10473;SDS011;5284;50.446;7.904;2024-01-30T14:23:42;14.30;;;6.03;;
10473;SDS011;5284;50.446;7.904;2024-01-30T14:28:45;16.55;;;6.32;;
10473;SDS011;5284;50.446;7.904;2024-01-30T14:33:50;15.15;;;5.63;;
10473;SDS011;5284;50.446;7.904;2024-01-30T14:38:53;13.38;;;5.38;;
10473;SDS011;5284;50.446;7.904;2024-01-30T14:43:56;12.13;;;6.05;;
10473;SDS011;5284;50.446;7.904;2024-01-30T14:49:00;13.73;;;6.35;;
10473;SDS011;5284;50.446;7.904;2024-01-30T14:54:07;19.10;;;5.78;;
10473;SDS011;5284;50.446;7.904;2024-01-30T14:59:10;19.08;;;7.25;;
10473;SDS011;5284;50.446;7.904;2024-01-30T15:04:16;17.33;;;6.45;;
10473;SDS011;5284;50.446;7.904;2024-01-30T15:09:19;10.60;;;5.40;;
10473;SDS011;5284;50.446;7.904;2024-01-30T15:14:27;19.08;;;5.63;;
10473;SDS011;5284;50.446;7.904;2024-01-30T15:19:31;20.63;;;6.10;;
10473;SDS011;5284;50.446;7.904;2024-01-30T15:24:35;30.40;;;5.30;;
10473;SDS011;5284;50.446;7.904;2024-01-30T15:29:38;13.98;;;5.85;;
10473;SDS011;5284;50.446;7.904;2024-01-30T15:34:42;23.10;;;5.55;;
10473;SDS011;5284;50.446;7.904;2024-01-30T15:39:45;16.80;;;5.68;;
10473;SDS011;5284;50.446;7.904;2024-01-30T15:44:48;18.27;;;6.90;;
10473;SDS011;5284;50.446;7.904;2024-01-30T15:49:52;20.13;;;5.93;;
10473;SDS011;5284;50.446;7.904;2024-01-30T15:54:55;22.77;;;6.53;;
10473;SDS011;5284;50.446;7.904;2024-01-30T15:59:58;14.25;;;5.93;;
10473;SDS011;5284;50.446;7.904;2024-01-30T16:05:03;19.17;;;6.88;;
10473;SDS011;5284;50.446;7.904;2024-01-30T16:10:07;15.63;;;5.57;;
10473;SDS011;5284;50.446;7.904;2024-01-30T16:15:13;23.38;;;7.30;;
10473;SDS011;5284;50.446;7.904;2024-01-30T16:20:18;16.60;;;6.07;;
10473;SDS011;5284;50.446;7.904;2024-01-30T16:25:21;20.38;;;8.27;;
10473;SDS011;5284;50.446;7.904;2024-01-30T16:30:25;16.13;;;7.53;;
10473;SDS011;5284;50.446;7.904;2024-01-30T16:35:30;41.13;;;12.15;;
10473;SDS011;5284;50.446;7.904;2024-01-30T16:40:47;13.93;;;6.80;;
10473;SDS011;5284;50.446;7.904;2024-01-30T16:45:52;13.50;;;6.97;;
10473;SDS011;5284;50.446;7.904;2024-01-30T16:50:57;16.58;;;7.68;;
10473;SDS011;5284;50.446;7.904;2024-01-30T16:56:00;31.10;;;11.30;;
10473;SDS011;5284;50.446;7.904;2024-01-30T17:01:03;23.35;;;7.82;;
10473;SDS011;5284;50.446;7.904;2024-01-30T17:06:07;25.02;;;10.40;;
10473;SDS011;5284;50.446;7.904;2024-01-30T17:11:14;33.58;;;12.35;;
10473;SDS011;5284;50.446;7.904;2024-01-30T17:16:20;24.13;;;9.10;;
10473;SDS011;5284;50.446;7.904;2024-01-30T17:21:25;21.45;;;8.57;;
10473;SDS011;5284;50.446;7.904;2024-01-30T17:26:29;17.92;;;7.68;;
10473;SDS011;5284;50.446;7.904;2024-01-30T17:31:33;21.90;;;9.73;;
10473;SDS011;5284;50.446;7.904;2024-01-30T17:36:39;18.73;;;9.45;;
10473;SDS011;5284;50.446;7.904;2024-01-30T17:41:42;25.00;;;9.77;;
10473;SDS011;5284;50.446;7.904;2024-01-30T17:46:47;28.85;;;11.15;;
10473;SDS011;5284;50.446;7.904;2024-01-30T17:51:52;21.33;;;9.90;;
10473;SDS011;5284;50.446;7.904;2024-01-30T17:56:56;29.58;;;10.13;;
10473;SDS011;5284;50.446;7.904;2024-01-30T18:01:59;26.30;;;9.57;;
10473;SDS011;5284;50.446;7.904;2024-01-30T18:07:04;16.58;;;9.38;;
10473;SDS011;5284;50.446;7.904;2024-01-30T18:12:07;18.88;;;9.23;;
10473;SDS011;5284;50.446;7.904;2024-01-30T18:17:11;27.50;;;10.45;;
10473;SDS011;5284;50.446;7.904;2024-01-30T18:22:16;20.83;;;9.93;;
10473;SDS011;5284;50.446;7.904;2024-01-30T18:27:20;26.70;;;10.40;;
10473;SDS011;5284;50.446;7.904;2024-01-30T18:32:24;21.33;;;9.98;;
10473;SDS011;5284;50.446;7.904;2024-01-30T18:37:28;20.17;;;10.85;;
10473;SDS011;5284;50.446;7.904;2024-01-30T18:42:32;20.40;;;10.73;;
10473;SDS011;5284;50.446;7.904;2024-01-30T18:47:35;25.90;;;11.15;;
10473;SDS011;5284;50.446;7.904;2024-01-30T18:52:40;39.13;;;13.43;;
10473;SDS011;5284;50.446;7.904;2024-01-30T18:57:43;37.05;;;12.52;;
10473;SDS011;5284;50.446;7.904;2024-01-30T19:02:46;33.63;;;13.65;;
10473;SDS011;5284;50.446;7.904;2024-01-30T19:07:50;30.02;;;12.50;;
10473;SDS011;5284;50.446;7.904;2024-01-30T19:12:54;40.72;;;14.38;;
10473;SDS011;5284;50.446;7.904;2024-01-30T19:17:57;32.90;;;10.35;;
10473;SDS011;5284;50.446;7.904;2024-01-30T19:23:03;27.25;;;11.52;;
10473;SDS011;5284;50.446;7.904;2024-01-30T19:28:08;34.63;;;12.33;;
10473;SDS011;5284;50.446;7.904;2024-01-30T19:33:15;27.15;;;11.25;;
10473;SDS011;5284;50.446;7.904;2024-01-30T19:38:21;28.48;;;11.25;;
10473;SDS011;5284;50.446;7.904;2024-01-30T19:43:26;33.00;;;11.60;;
10473;SDS011;5284;50.446;7.904;2024-01-30T19:48:29;22.73;;;10.63;;
10473;SDS011;5284;50.446;7.904;2024-01-30T19:53:33;20.70;;;9.23;;
10473;SDS011;5284;50.446;7.904;2024-01-30T19:58:37;23.92;;;8.93;;
10473;SDS011;5284;50.446;7.904;2024-01-30T20:03:40;27.05;;;9.20;;
10473;SDS011;5284;50.446;7.904;2024-01-30T20:08:44;18.27;;;8.63;;
10473;SDS011;5284;50.446;7.904;2024-01-30T20:13:47;25.08;;;12.05;;
10473;SDS011;5284;50.446;7.904;2024-01-30T20:18:51;22.50;;;9.43;;
10473;SDS011;5284;50.446;7.904;2024-01-30T20:23:55;19.35;;;8.85;;
10473;SDS011;5284;50.446;7.904;2024-01-30T20:28:59;18.08;;;9.57;;
10473;SDS011;5284;50.446;7.904;2024-01-30T20:34:03;17.58;;;8.82;;
10473;SDS011;5284;50.446;7.904;2024-01-30T20:39:08;33.20;;;11.52;;
10473;SDS011;5284;50.446;7.904;2024-01-30T20:44:12;24.73;;;11.73;;
10473;SDS011;5284;50.446;7.904;2024-01-30T20:49:17;36.05;;;16.38;;
10473;SDS011;5284;50.446;7.904;2024-01-30T20:54:22;27.98;;;12.38;;
10473;SDS011;5284;50.446;7.904;2024-01-30T20:59:26;19.27;;;8.15;;
10473;SDS011;5284;50.446;7.904;2024-01-30T21:04:29;14.38;;;6.22;;
10473;SDS011;5284;50.446;7.904;2024-01-30T21:09:36;11.68;;;5.65;;
10473;SDS011;5284;50.446;7.904;2024-01-30T21:14:39;12.32;;;3.95;;
10473;SDS011;5284;50.446;7.904;2024-01-30T21:19:43;16.15;;;3.80;;
10473;SDS011;5284;50.446;7.904;2024-01-30T21:24:47;9.77;;;3.20;;
10473;SDS011;5284;50.446;7.904;2024-01-30T21:29:50;7.18;;;2.80;;
10473;SDS011;5284;50.446;7.904;2024-01-30T21:34:54;11.00;;;3.13;;
10473;SDS011;5284;50.446;7.904;2024-01-30T21:40:00;11.13;;;3.30;;
10473;SDS011;5284;50.446;7.904;2024-01-30T21:45:05;10.10;;;2.55;;
10473;SDS011;5284;50.446;7.904;2024-01-30T21:50:09;6.63;;;2.53;;
10473;SDS011;5284;50.446;7.904;2024-01-30T21:55:14;9.10;;;2.90;;
10473;SDS011;5284;50.446;7.904;2024-01-30T22:00:17;6.50;;;3.28;;
10473;SDS011;5284;50.446;7.904;2024-01-30T22:05:20;9.80;;;2.60;;
10473;SDS011;5284;50.446;7.904;2024-01-30T22:10:24;12.27;;;3.50;;
10473;SDS011;5284;50.446;7.904;2024-01-30T22:15:29;13.63;;;2.65;;
10473;SDS011;5284;50.446;7.904;2024-01-30T22:20:34;13.85;;;3.45;;
10473;SDS011;5284;50.446;7.904;2024-01-30T22:25:38;9.15;;;2.90;;
10473;SDS011;5284;50.446;7.904;2024-01-30T22:30:43;12.13;;;2.72;;
10473;SDS011;5284;50.446;7.904;2024-01-30T22:35:46;15.05;;;2.92;;
10473;SDS011;5284;50.446;7.904;2024-01-30T22:40:51;9.40;;;2.53;;
10473;SDS011;5284;50.446;7.904;2024-01-30T22:45:54;15.38;;;3.35;;
10473;SDS011;5284;50.446;7.904;2024-01-30T22:50:56;38.47;;;7.20;;
10473;SDS011;5284;50.446;7.904;2024-01-30T22:56:02;5.72;;;3.08;;
10473;SDS011;5284;50.446;7.904;2024-01-30T23:01:05;17.15;;;4.78;;
10473;SDS011;5284;50.446;7.904;2024-01-30T23:06:09;11.88;;;3.15;;
10473;SDS011;5284;50.446;7.904;2024-01-30T23:11:13;17.17;;;3.83;;
10473;SDS011;5284;50.446;7.904;2024-01-30T23:16:18;17.80;;;3.03;;
10473;SDS011;5284;50.446;7.904;2024-01-30T23:21:22;24.13;;;6.47;;
10473;SDS011;5284;50.446;7.904;2024-01-30T23:26:26;18.05;;;4.43;;
10473;SDS011;5284;50.446;7.904;2024-01-30T23:31:29;7.20;;;2.47;;
10473;SDS011;5284;50.446;7.904;2024-01-30T23:36:32;13.65;;;2.30;;
10473;SDS011;5284;50.446;7.904;2024-01-30T23:41:38;9.40;;;2.50;;
10473;SDS011;5284;50.446;7.904;2024-01-30T23:46:41;16.52;;;2.10;;
10473;SDS011;5284;50.446;7.904;2024-01-30T23:51:44;8.75;;;2.47;;
10473;SDS011;5284;50.446;7.904;2024-01-30T23:56:49;8.13;;;2.10;;
